sensor_id;sensor_type;location;lat;lon;timestamp;P1;durP1;ratioP1;P2;durP2;ratioP2
50429;SDS011;36359;41.556;-8.418;2023-03-11T00:01:04;4.47;;;1.98;;
50429;SDS011;36359;41.556;-8.418;2023-03-11T00:04:29;3.17;;;1.73;;
50429;SDS011;36359;41.556;-8.418;2023-03-11T00:07:54;2.67;;;1.27;;
50429;SDS011;36359;41.556;-8.418;2023-03-11T00:11:19;1.92;;;0.52;;
50429;SDS011;36359;41.556;-8.418;2023-03-11T00:15:02;2.92;;;1.65;;
50429;SDS011;36359;41.556;-8.418;2023-03-11T00:18:49;4.00;;;1.73;;
50429;SDS011;36359;41.556;-8.418;2023-03-11T00:22:32;1.85;;;1.10;;
50429;SDS011;36359;41.556;-8.418;2023-03-11T00:25:56;3.00;;;1.58;;
50429;SDS011;36359;41.556;-8.418;2023-03-11T00:29:21;1.00;;;0.80;;
50429;SDS011;36359;41.556;-8.418;2023-03-11T00:32:46;1.95;;;0.93;;
50429;SDS011;36359;41.556;-8.418;2023-03-11T00:36:27;3.58;;;1.60;;
50429;SDS011;36359;41.556;-8.418;2023-03-11T00:40:11;3.10;;;1.52;;
50429;SDS011;36359;41.556;-8.418;2023-03-11T00:43:54;2.35;;;1.33;;
50429;SDS011;36359;41.556;-8.418;2023-03-11T00:47:18;2.13;;;0.73;;
50429;SDS011;36359;41.556;-8.418;2023-03-11T00:50:43;2.22;;;1.38;;
50429;SDS011;36359;41.556;-8.418;2023-03-11T00:54:07;2.35;;;1.38;;
50429;SDS011;36359;41.556;-8.418;2023-03-11T00:57:50;2.83;;;1.83;;
50429;SDS011;36359;41.556;-8.418;2023-03-11T01:01:33;2.47;;;1.25;;
50429;SDS011;36359;41.556;-8.418;2023-03-11T01:04:59;5.10;;;2.38;;
50429;SDS011;36359;41.556;-8.418;2023-03-11T01:08:44;2.65;;;1.70;;
50429;SDS011;36359;41.556;-8.418;2023-03-11T01:12:27;2.25;;;1.67;;
50429;SDS011;36359;41.556;-8.418;2023-03-11T01:16:11;2.58;;;1.58;;
50429;SDS011;36359;41.556;-8.418;2023-03-11T01:19:35;2.35;;;1.40;;
50429;SDS011;36359;41.556;-8.418;2023-03-11T01:23:19;2.17;;;1.27;;
50429;SDS011;36359;41.556;-8.418;2023-03-11T01:26:43;3.72;;;1.67;;
50429;SDS011;36359;41.556;-8.418;2023-03-11T01:30:27;3.25;;;1.27;;
50429;SDS011;36359;41.556;-8.418;2023-03-11T01:33:51;2.83;;;1.40;;
50429;SDS011;36359;41.556;-8.418;2023-03-11T01:37:16;3.00;;;1.60;;
50429;SDS011;36359;41.556;-8.418;2023-03-11T01:41:00;3.70;;;2.05;;
50429;SDS011;36359;41.556;-8.418;2023-03-11T01:44:43;3.78;;;1.90;;
50429;SDS011;36359;41.556;-8.418;2023-03-11T01:48:28;4.35;;;2.58;;
50429;SDS011;36359;41.556;-8.418;2023-03-11T01:55:54;4.30;;;2.13;;
50429;SDS011;36359;41.556;-8.418;2023-03-11T02:00:02;2.88;;;1.63;;
50429;SDS011;36359;41.556;-8.418;2023-03-11T02:03:13;4.25;;;1.80;;
50429;SDS011;36359;41.556;-8.418;2023-03-11T02:06:41;4.97;;;1.95;;
50429;SDS011;36359;41.556;-8.418;2023-03-11T02:17:50;3.88;;;2.25;;
50429;SDS011;36359;41.556;-8.418;2023-03-11T02:21:33;3.85;;;1.90;;
50429;SDS011;36359;41.556;-8.418;2023-03-11T02:28:50;2.35;;;1.33;;
50429;SDS011;36359;41.556;-8.418;2023-03-11T02:32:17;3.17;;;1.55;;
50429;SDS011;36359;41.556;-8.418;2023-03-11T02:36:32;3.85;;;1.83;;
50429;SDS011;36359;41.556;-8.418;2023-03-11T02:43:45;2.95;;;1.23;;
50429;SDS011;36359;41.556;-8.418;2023-03-11T02:47:11;2.47;;;1.20;;
50429;SDS011;36359;41.556;-8.418;2023-03-11T02:58:34;3.35;;;1.77;;
50429;SDS011;36359;41.556;-8.418;2023-03-11T03:02:00;6.75;;;2.20;;
50429;SDS011;36359;41.556;-8.418;2023-03-11T03:05:25;7.20;;;2.00;;
50429;SDS011;36359;41.556;-8.418;2023-03-11T03:09:08;5.03;;;1.88;;
50429;SDS011;36359;41.556;-8.418;2023-03-11T03:12:51;3.53;;;1.73;;
50429;SDS011;36359;41.556;-8.418;2023-03-11T03:16:16;4.82;;;1.45;;
50429;SDS011;36359;41.556;-8.418;2023-03-11T03:19:40;2.00;;;1.60;;
50429;SDS011;36359;41.556;-8.418;2023-03-11T03:23:23;4.20;;;1.88;;
50429;SDS011;36359;41.556;-8.418;2023-03-11T03:26:47;7.32;;;2.20;;
50429;SDS011;36359;41.556;-8.418;2023-03-11T03:30:30;5.45;;;1.88;;
50429;SDS011;36359;41.556;-8.418;2023-03-11T03:34:13;4.18;;;1.73;;
50429;SDS011;36359;41.556;-8.418;2023-03-11T03:37:53;6.80;;;2.38;;
50429;SDS011;36359;41.556;-8.418;2023-03-11T03:41:18;8.50;;;2.90;;
50429;SDS011;36359;41.556;-8.418;2023-03-11T03:45:02;8.10;;;2.80;;
50429;SDS011;36359;41.556;-8.418;2023-03-11T03:48:46;7.35;;;2.53;;
50429;SDS011;36359;41.556;-8.418;2023-03-11T03:52:11;4.38;;;1.60;;
50429;SDS011;36359;41.556;-8.418;2023-03-11T03:55:36;6.88;;;2.40;;
50429;SDS011;36359;41.556;-8.418;2023-03-11T03:59:18;5.25;;;2.17;;
50429;SDS011;36359;41.556;-8.418;2023-03-11T04:03:02;9.40;;;2.88;;
50429;SDS011;36359;41.556;-8.418;2023-03-11T04:06:45;7.63;;;2.65;;
50429;SDS011;36359;41.556;-8.418;2023-03-11T04:10:11;2.15;;;1.20;;
50429;SDS011;36359;41.556;-8.418;2023-03-11T04:13:36;8.02;;;2.85;;
50429;SDS011;36359;41.556;-8.418;2023-03-11T04:17:01;9.10;;;3.00;;
50429;SDS011;36359;41.556;-8.418;2023-03-11T04:20:25;5.75;;;1.83;;
50429;SDS011;36359;41.556;-8.418;2023-03-11T04:23:51;3.95;;;2.38;;
50429;SDS011;36359;41.556;-8.418;2023-03-11T04:27:33;2.88;;;1.38;;
50429;SDS011;36359;41.556;-8.418;2023-03-11T04:31:16;5.07;;;2.00;;
50429;SDS011;36359;41.556;-8.418;2023-03-11T04:34:42;5.35;;;1.65;;
50429;SDS011;36359;41.556;-8.418;2023-03-11T04:38:25;4.25;;;1.70;;
50429;SDS011;36359;41.556;-8.418;2023-03-11T04:42:08;4.70;;;1.52;;
50429;SDS011;36359;41.556;-8.418;2023-03-11T04:45:51;8.80;;;3.20;;
50429;SDS011;36359;41.556;-8.418;2023-03-11T04:49:34;4.75;;;1.75;;
50429;SDS011;36359;41.556;-8.418;2023-03-11T04:53:17;5.80;;;1.58;;
50429;SDS011;36359;41.556;-8.418;2023-03-11T04:56:41;7.18;;;2.85;;
50429;SDS011;36359;41.556;-8.418;2023-03-11T05:00:10;5.85;;;2.05;;
50429;SDS011;36359;41.556;-8.418;2023-03-11T05:03:34;4.82;;;1.50;;
50429;SDS011;36359;41.556;-8.418;2023-03-11T05:07:17;4.32;;;1.33;;
50429;SDS011;36359;41.556;-8.418;2023-03-11T05:10:43;6.43;;;2.53;;
50429;SDS011;36359;41.556;-8.418;2023-03-11T05:14:09;9.45;;;2.80;;
50429;SDS011;36359;41.556;-8.418;2023-03-11T05:17:33;5.95;;;1.95;;
50429;SDS011;36359;41.556;-8.418;2023-03-11T05:21:16;7.10;;;2.10;;
50429;SDS011;36359;41.556;-8.418;2023-03-11T05:24:41;2.25;;;0.90;;
50429;SDS011;36359;41.556;-8.418;2023-03-11T05:28:05;5.00;;;2.00;;
50429;SDS011;36359;41.556;-8.418;2023-03-11T05:31:48;8.65;;;2.38;;
50429;SDS011;36359;41.556;-8.418;2023-03-11T05:35:13;7.35;;;2.10;;
50429;SDS011;36359;41.556;-8.418;2023-03-11T05:38:40;9.32;;;2.20;;
50429;SDS011;36359;41.556;-8.418;2023-03-11T05:42:24;5.28;;;2.17;;
50429;SDS011;36359;41.556;-8.418;2023-03-11T05:45:52;5.88;;;1.20;;
50429;SDS011;36359;41.556;-8.418;2023-03-11T05:49:16;6.50;;;1.85;;
50429;SDS011;36359;41.556;-8.418;2023-03-11T05:52:43;4.03;;;1.45;;
50429;SDS011;36359;41.556;-8.418;2023-03-11T05:56:14;5.18;;;1.65;;
50429;SDS011;36359;41.556;-8.418;2023-03-11T05:59:39;8.95;;;2.78;;
50429;SDS011;36359;41.556;-8.418;2023-03-11T06:03:04;7.78;;;1.77;;
50429;SDS011;36359;41.556;-8.418;2023-03-11T06:06:29;4.43;;;1.63;;
50429;SDS011;36359;41.556;-8.418;2023-03-11T06:09:54;8.32;;;1.73;;
50429;SDS011;36359;41.556;-8.418;2023-03-11T06:13:25;8.52;;;2.53;;
50429;SDS011;36359;41.556;-8.418;2023-03-11T06:17:08;2.75;;;1.17;;
50429;SDS011;36359;41.556;-8.418;2023-03-11T06:20:34;8.38;;;2.30;;
50429;SDS011;36359;41.556;-8.418;2023-03-11T06:24:17;5.20;;;1.80;;
50429;SDS011;36359;41.556;-8.418;2023-03-11T06:27:43;10.68;;;3.03;;
50429;SDS011;36359;41.556;-8.418;2023-03-11T06:31:22;4.35;;;1.30;;
50429;SDS011;36359;41.556;-8.418;2023-03-11T06:34:50;4.93;;;1.48;;
50429;SDS011;36359;41.556;-8.418;2023-03-11T06:38:40;4.97;;;1.15;;
50429;SDS011;36359;41.556;-8.418;2023-03-11T06:42:08;6.63;;;1.77;;
50429;SDS011;36359;41.556;-8.418;2023-03-11T06:49:01;5.40;;;1.65;;
50429;SDS011;36359;41.556;-8.418;2023-03-11T06:52:31;6.55;;;2.47;;
50429;SDS011;36359;41.556;-8.418;2023-03-11T06:56:07;8.82;;;2.20;;
50429;SDS011;36359;41.556;-8.418;2023-03-11T06:59:33;9.30;;;2.63;;
50429;SDS011;36359;41.556;-8.418;2023-03-11T07:11:04;5.60;;;1.83;;
50429;SDS011;36359;41.556;-8.418;2023-03-11T07:14:33;4.25;;;1.35;;
50429;SDS011;36359;41.556;-8.418;2023-03-11T07:17:57;7.43;;;2.00;;
50429;SDS011;36359;41.556;-8.418;2023-03-11T07:21:25;7.47;;;1.60;;
50429;SDS011;36359;41.556;-8.418;2023-03-11T07:32:35;5.57;;;1.85;;
50429;SDS011;36359;41.556;-8.418;2023-03-11T07:36:19;3.03;;;1.10;;
50429;SDS011;36359;41.556;-8.418;2023-03-11T07:39:43;6.65;;;2.10;;
50429;SDS011;36359;41.556;-8.418;2023-03-11T07:43:08;5.95;;;1.88;;
50429;SDS011;36359;41.556;-8.418;2023-03-11T07:46:35;4.93;;;1.60;;
50429;SDS011;36359;41.556;-8.418;2023-03-11T07:50:00;7.43;;;1.77;;
50429;SDS011;36359;41.556;-8.418;2023-03-11T07:53:32;4.05;;;1.50;;
50429;SDS011;36359;41.556;-8.418;2023-03-11T07:57:15;6.15;;;1.40;;
50429;SDS011;36359;41.556;-8.418;2023-03-11T08:00:39;4.45;;;1.25;;
50429;SDS011;36359;41.556;-8.418;2023-03-11T08:04:06;7.32;;;2.17;;
50429;SDS011;36359;41.556;-8.418;2023-03-11T08:07:31;9.10;;;2.60;;
50429;SDS011;36359;41.556;-8.418;2023-03-11T08:10:55;7.20;;;1.80;;
50429;SDS011;36359;41.556;-8.418;2023-03-11T08:14:19;8.90;;;1.77;;
50429;SDS011;36359;41.556;-8.418;2023-03-11T08:17:43;6.30;;;2.50;;
50429;SDS011;36359;41.556;-8.418;2023-03-11T08:21:27;6.78;;;1.63;;
50429;SDS011;36359;41.556;-8.418;2023-03-11T08:25:10;6.22;;;1.85;;
50429;SDS011;36359;41.556;-8.418;2023-03-11T08:28:55;3.60;;;1.10;;
50429;SDS011;36359;41.556;-8.418;2023-03-11T08:32:38;9.30;;;2.10;;
50429;SDS011;36359;41.556;-8.418;2023-03-11T08:36:03;9.68;;;1.85;;
50429;SDS011;36359;41.556;-8.418;2023-03-11T08:39:27;7.72;;;1.85;;
50429;SDS011;36359;41.556;-8.418;2023-03-11T08:42:51;7.20;;;2.00;;
50429;SDS011;36359;41.556;-8.418;2023-03-11T08:46:19;4.57;;;1.10;;
50429;SDS011;36359;41.556;-8.418;2023-03-11T08:50:22;7.20;;;1.95;;
50429;SDS011;36359;41.556;-8.418;2023-03-11T08:54:25;6.85;;;1.17;;
50429;SDS011;36359;41.556;-8.418;2023-03-11T08:57:51;18.75;;;3.70;;
50429;SDS011;36359;41.556;-8.418;2023-03-11T09:01:16;4.13;;;1.48;;
50429;SDS011;36359;41.556;-8.418;2023-03-11T09:04:41;7.20;;;1.77;;
50429;SDS011;36359;41.556;-8.418;2023-03-11T09:08:24;6.00;;;1.58;;
50429;SDS011;36359;41.556;-8.418;2023-03-11T09:11:48;9.48;;;2.00;;
50429;SDS011;36359;41.556;-8.418;2023-03-11T09:15:31;6.47;;;1.85;;
50429;SDS011;36359;41.556;-8.418;2023-03-11T09:18:55;7.13;;;1.75;;
50429;SDS011;36359;41.556;-8.418;2023-03-11T09:22:32;7.32;;;2.38;;
50429;SDS011;36359;41.556;-8.418;2023-03-11T09:25:56;4.53;;;1.35;;
50429;SDS011;36359;41.556;-8.418;2023-03-11T09:29:39;5.63;;;1.73;;
50429;SDS011;36359;41.556;-8.418;2023-03-11T09:33:22;13.85;;;2.97;;
50429;SDS011;36359;41.556;-8.418;2023-03-11T09:36:46;6.88;;;1.70;;
50429;SDS011;36359;41.556;-8.418;2023-03-11T09:40:20;3.58;;;1.40;;
50429;SDS011;36359;41.556;-8.418;2023-03-11T09:44:39;7.07;;;2.10;;
50429;SDS011;36359;41.556;-8.418;2023-03-11T09:52:23;7.85;;;1.30;;
50429;SDS011;36359;41.556;-8.418;2023-03-11T09:56:21;12.82;;;2.88;;
50429;SDS011;36359;41.556;-8.418;2023-03-11T09:59:56;7.22;;;1.85;;
50429;SDS011;36359;41.556;-8.418;2023-03-11T10:03:32;4.65;;;1.33;;
50429;SDS011;36359;41.556;-8.418;2023-03-11T10:07:00;8.55;;;1.98;;
50429;SDS011;36359;41.556;-8.418;2023-03-11T10:10:38;6.80;;;1.90;;
50429;SDS011;36359;41.556;-8.418;2023-03-11T10:14:43;9.48;;;1.80;;
50429;SDS011;36359;41.556;-8.418;2023-03-11T10:18:38;9.02;;;2.63;;
50429;SDS011;36359;41.556;-8.418;2023-03-11T10:29:46;9.98;;;3.55;;
50429;SDS011;36359;41.556;-8.418;2023-03-11T10:33:23;13.23;;;3.67;;
50429;SDS011;36359;41.556;-8.418;2023-03-11T10:37:03;14.38;;;3.28;;
50429;SDS011;36359;41.556;-8.418;2023-03-11T10:40:54;9.35;;;2.42;;
50429;SDS011;36359;41.556;-8.418;2023-03-11T10:44:35;4.18;;;1.35;;
50429;SDS011;36359;41.556;-8.418;2023-03-11T10:48:11;11.52;;;2.20;;
50429;SDS011;36359;41.556;-8.418;2023-03-11T10:51:57;4.10;;;1.00;;
50429;SDS011;36359;41.556;-8.418;2023-03-11T10:55:58;4.35;;;1.40;;
50429;SDS011;36359;41.556;-8.418;2023-03-11T10:59:48;5.97;;;1.58;;
50429;SDS011;36359;41.556;-8.418;2023-03-11T11:03:23;9.07;;;3.45;;
50429;SDS011;36359;41.556;-8.418;2023-03-11T11:07:30;4.63;;;1.77;;
50429;SDS011;36359;41.556;-8.418;2023-03-11T11:10:56;5.88;;;1.90;;
50429;SDS011;36359;41.556;-8.418;2023-03-11T11:18:43;8.63;;;2.63;;
50429;SDS011;36359;41.556;-8.418;2023-03-11T11:22:11;8.50;;;3.28;;
50429;SDS011;36359;41.556;-8.418;2023-03-11T11:25:54;6.50;;;1.70;;
50429;SDS011;36359;41.556;-8.418;2023-03-11T11:29:39;7.22;;;3.00;;
50429;SDS011;36359;41.556;-8.418;2023-03-11T11:37:51;8.18;;;2.08;;
50429;SDS011;36359;41.556;-8.418;2023-03-11T11:41:35;11.07;;;3.67;;
50429;SDS011;36359;41.556;-8.418;2023-03-11T11:45:03;13.80;;;3.45;;
50429;SDS011;36359;41.556;-8.418;2023-03-11T11:48:55;10.07;;;3.55;;
50429;SDS011;36359;41.556;-8.418;2023-03-11T11:57:15;11.30;;;2.97;;
50429;SDS011;36359;41.556;-8.418;2023-03-11T12:00:52;8.77;;;2.58;;
50429;SDS011;36359;41.556;-8.418;2023-03-11T12:08:26;7.68;;;3.22;;
50429;SDS011;36359;41.556;-8.418;2023-03-11T12:24:06;8.70;;;2.85;;
50429;SDS011;36359;41.556;-8.418;2023-03-11T12:27:58;10.02;;;2.78;;
50429;SDS011;36359;41.556;-8.418;2023-03-11T12:31:23;5.65;;;2.10;;
50429;SDS011;36359;41.556;-8.418;2023-03-11T12:35:20;6.75;;;2.67;;
50429;SDS011;36359;41.556;-8.418;2023-03-11T12:39:07;8.60;;;3.00;;
50429;SDS011;36359;41.556;-8.418;2023-03-11T12:42:57;8.70;;;3.08;;
50429;SDS011;36359;41.556;-8.418;2023-03-11T12:46:23;6.85;;;2.33;;
50429;SDS011;36359;41.556;-8.418;2023-03-11T12:58:17;9.15;;;2.25;;
50429;SDS011;36359;41.556;-8.418;2023-03-11T13:14:24;12.50;;;3.92;;
50429;SDS011;36359;41.556;-8.418;2023-03-11T13:18:00;7.22;;;2.33;;
50429;SDS011;36359;41.556;-8.418;2023-03-11T13:21:45;6.25;;;2.45;;
50429;SDS011;36359;41.556;-8.418;2023-03-11T13:29:45;9.60;;;2.42;;
50429;SDS011;36359;41.556;-8.418;2023-03-11T13:33:30;6.05;;;2.20;;
50429;SDS011;36359;41.556;-8.418;2023-03-11T13:40:59;5.20;;;1.60;;
50429;SDS011;36359;41.556;-8.418;2023-03-11T13:45:01;8.13;;;1.42;;
50429;SDS011;36359;41.556;-8.418;2023-03-11T13:48:30;4.60;;;1.52;;
50429;SDS011;36359;41.556;-8.418;2023-03-11T13:52:00;5.45;;;1.75;;
50429;SDS011;36359;41.556;-8.418;2023-03-11T13:55:35;4.45;;;1.63;;
50429;SDS011;36359;41.556;-8.418;2023-03-11T13:59:22;5.47;;;1.80;;
50429;SDS011;36359;41.556;-8.418;2023-03-11T14:02:49;4.82;;;2.00;;
50429;SDS011;36359;41.556;-8.418;2023-03-11T14:06:16;5.95;;;1.65;;
50429;SDS011;36359;41.556;-8.418;2023-03-11T14:13:53;9.23;;;2.25;;
50429;SDS011;36359;41.556;-8.418;2023-03-11T14:17:43;8.47;;;2.10;;
50429;SDS011;36359;41.556;-8.418;2023-03-11T14:21:11;4.95;;;1.48;;
50429;SDS011;36359;41.556;-8.418;2023-03-11T14:24:39;5.35;;;1.60;;
50429;SDS011;36359;41.556;-8.418;2023-03-11T14:28:05;7.22;;;2.28;;
50429;SDS011;36359;41.556;-8.418;2023-03-11T14:31:39;4.85;;;1.65;;
50429;SDS011;36359;41.556;-8.418;2023-03-11T14:35:19;9.18;;;1.58;;
50429;SDS011;36359;41.556;-8.418;2023-03-11T14:38:44;6.32;;;1.83;;
50429;SDS011;36359;41.556;-8.418;2023-03-11T14:42:35;7.90;;;1.70;;
50429;SDS011;36359;41.556;-8.418;2023-03-11T14:46:24;6.00;;;1.77;;
50429;SDS011;36359;41.556;-8.418;2023-03-11T14:50:10;6.00;;;1.58;;
50429;SDS011;36359;41.556;-8.418;2023-03-11T14:53:53;7.60;;;1.65;;
50429;SDS011;36359;41.556;-8.418;2023-03-11T14:57:22;4.40;;;1.55;;
50429;SDS011;36359;41.556;-8.418;2023-03-11T15:00:48;7.32;;;1.75;;
50429;SDS011;36359;41.556;-8.418;2023-03-11T15:07:45;5.18;;;1.88;;
50429;SDS011;36359;41.556;-8.418;2023-03-11T15:11:17;7.18;;;3.55;;
50429;SDS011;36359;41.556;-8.418;2023-03-11T15:14:58;5.07;;;2.45;;
50429;SDS011;36359;41.556;-8.418;2023-03-11T15:18:27;8.98;;;3.67;;
50429;SDS011;36359;41.556;-8.418;2023-03-11T15:21:52;6.28;;;1.95;;
50429;SDS011;36359;41.556;-8.418;2023-03-11T15:25:46;7.38;;;3.10;;
50429;SDS011;36359;41.556;-8.418;2023-03-11T15:33:22;10.30;;;3.40;;
50429;SDS011;36359;41.556;-8.418;2023-03-11T15:37:18;9.80;;;3.38;;
50429;SDS011;36359;41.556;-8.418;2023-03-11T15:48:09;5.68;;;2.05;;
50429;SDS011;36359;41.556;-8.418;2023-03-11T15:51:36;7.70;;;2.38;;
50429;SDS011;36359;41.556;-8.418;2023-03-11T15:55:00;10.23;;;3.40;;
50429;SDS011;36359;41.556;-8.418;2023-03-11T15:58:35;8.85;;;3.25;;
50429;SDS011;36359;41.556;-8.418;2023-03-11T16:02:01;8.73;;;3.85;;
50429;SDS011;36359;41.556;-8.418;2023-03-11T16:05:25;6.65;;;2.45;;
50429;SDS011;36359;41.556;-8.418;2023-03-11T16:12:34;12.00;;;4.90;;
50429;SDS011;36359;41.556;-8.418;2023-03-11T16:15:58;10.75;;;3.85;;
50429;SDS011;36359;41.556;-8.418;2023-03-11T16:19:22;7.35;;;2.63;;
50429;SDS011;36359;41.556;-8.418;2023-03-11T16:22:48;6.60;;;2.17;;
50429;SDS011;36359;41.556;-8.418;2023-03-11T16:26:13;9.65;;;2.80;;
50429;SDS011;36359;41.556;-8.418;2023-03-11T16:29:39;7.68;;;2.55;;
50429;SDS011;36359;41.556;-8.418;2023-03-11T16:33:03;10.35;;;3.97;;
50429;SDS011;36359;41.556;-8.418;2023-03-11T16:36:27;6.03;;;2.72;;
50429;SDS011;36359;41.556;-8.418;2023-03-11T16:39:51;11.88;;;3.97;;
50429;SDS011;36359;41.556;-8.418;2023-03-11T16:46:46;11.93;;;6.18;;
50429;SDS011;36359;41.556;-8.418;2023-03-11T16:50:11;7.00;;;2.70;;
50429;SDS011;36359;41.556;-8.418;2023-03-11T16:53:35;6.70;;;2.28;;
50429;SDS011;36359;41.556;-8.418;2023-03-11T16:56:59;8.95;;;2.97;;
50429;SDS011;36359;41.556;-8.418;2023-03-11T17:00:23;5.50;;;2.38;;
50429;SDS011;36359;41.556;-8.418;2023-03-11T17:03:48;7.95;;;2.65;;
50429;SDS011;36359;41.556;-8.418;2023-03-11T17:07:12;17.85;;;4.60;;
50429;SDS011;36359;41.556;-8.418;2023-03-11T17:10:41;16.05;;;5.18;;
50429;SDS011;36359;41.556;-8.418;2023-03-11T17:14:05;10.80;;;3.53;;
50429;SDS011;36359;41.556;-8.418;2023-03-11T17:17:31;13.10;;;4.10;;
50429;SDS011;36359;41.556;-8.418;2023-03-11T17:20:55;11.93;;;3.40;;
50429;SDS011;36359;41.556;-8.418;2023-03-11T17:24:19;10.00;;;3.30;;
50429;SDS011;36359;41.556;-8.418;2023-03-11T17:27:43;7.57;;;3.10;;
50429;SDS011;36359;41.556;-8.418;2023-03-11T17:31:12;10.23;;;4.93;;
50429;SDS011;36359;41.556;-8.418;2023-03-11T17:34:40;9.25;;;3.42;;
50429;SDS011;36359;41.556;-8.418;2023-03-11T17:38:05;8.32;;;3.05;;
50429;SDS011;36359;41.556;-8.418;2023-03-11T17:41:29;8.63;;;3.58;;
50429;SDS011;36359;41.556;-8.418;2023-03-11T17:44:54;11.98;;;4.43;;
50429;SDS011;36359;41.556;-8.418;2023-03-11T17:48:18;13.80;;;5.07;;
50429;SDS011;36359;41.556;-8.418;2023-03-11T17:51:42;15.05;;;5.97;;
50429;SDS011;36359;41.556;-8.418;2023-03-11T17:55:06;20.00;;;6.20;;
50429;SDS011;36359;41.556;-8.418;2023-03-11T17:58:31;7.90;;;3.78;;
50429;SDS011;36359;41.556;-8.418;2023-03-11T18:01:55;11.13;;;3.63;;
50429;SDS011;36359;41.556;-8.418;2023-03-11T18:05:38;10.00;;;4.00;;
50429;SDS011;36359;41.556;-8.418;2023-03-11T18:09:21;10.82;;;4.00;;
50429;SDS011;36359;41.556;-8.418;2023-03-11T18:12:54;10.57;;;4.00;;
50429;SDS011;36359;41.556;-8.418;2023-03-11T18:16:20;9.98;;;3.72;;
50429;SDS011;36359;41.556;-8.418;2023-03-11T18:19:45;12.43;;;5.50;;
50429;SDS011;36359;41.556;-8.418;2023-03-11T18:23:09;18.02;;;6.35;;
50429;SDS011;36359;41.556;-8.418;2023-03-11T18:26:34;11.50;;;4.63;;
50429;SDS011;36359;41.556;-8.418;2023-03-11T18:29:58;17.10;;;5.35;;
50429;SDS011;36359;41.556;-8.418;2023-03-11T18:33:28;9.48;;;3.70;;
50429;SDS011;36359;41.556;-8.418;2023-03-11T18:36:53;10.25;;;4.00;;
50429;SDS011;36359;41.556;-8.418;2023-03-11T18:40:17;21.85;;;6.32;;
50429;SDS011;36359;41.556;-8.418;2023-03-11T18:43:41;13.15;;;5.03;;
50429;SDS011;36359;41.556;-8.418;2023-03-11T18:47:06;9.23;;;3.65;;
50429;SDS011;36359;41.556;-8.418;2023-03-11T18:50:30;14.38;;;6.75;;
50429;SDS011;36359;41.556;-8.418;2023-03-11T18:53:56;17.42;;;7.07;;
50429;SDS011;36359;41.556;-8.418;2023-03-11T18:57:20;20.70;;;7.82;;
50429;SDS011;36359;41.556;-8.418;2023-03-11T19:00:45;14.55;;;7.28;;
50429;SDS011;36359;41.556;-8.418;2023-03-11T19:04:09;16.42;;;6.05;;
50429;SDS011;36359;41.556;-8.418;2023-03-11T19:07:34;14.75;;;7.10;;
50429;SDS011;36359;41.556;-8.418;2023-03-11T19:10:59;14.25;;;6.47;;
50429;SDS011;36359;41.556;-8.418;2023-03-11T19:14:23;15.65;;;7.00;;
50429;SDS011;36359;41.556;-8.418;2023-03-11T19:17:47;14.18;;;7.13;;
50429;SDS011;36359;41.556;-8.418;2023-03-11T19:21:12;11.07;;;4.80;;
50429;SDS011;36359;41.556;-8.418;2023-03-11T19:24:55;15.52;;;5.97;;
50429;SDS011;36359;41.556;-8.418;2023-03-11T19:28:20;13.57;;;5.20;;
50429;SDS011;36359;41.556;-8.418;2023-03-11T19:31:45;17.65;;;7.72;;
50429;SDS011;36359;41.556;-8.418;2023-03-11T19:35:09;17.88;;;7.25;;
50429;SDS011;36359;41.556;-8.418;2023-03-11T19:38:35;14.20;;;7.10;;
50429;SDS011;36359;41.556;-8.418;2023-03-11T19:41:59;17.33;;;9.32;;
50429;SDS011;36359;41.556;-8.418;2023-03-11T19:45:27;15.57;;;8.70;;
50429;SDS011;36359;41.556;-8.418;2023-03-11T19:48:53;19.02;;;8.98;;
50429;SDS011;36359;41.556;-8.418;2023-03-11T19:52:36;16.27;;;8.50;;
50429;SDS011;36359;41.556;-8.418;2023-03-11T19:56:01;19.10;;;10.30;;
50429;SDS011;36359;41.556;-8.418;2023-03-11T19:59:25;25.67;;;12.38;;
50429;SDS011;36359;41.556;-8.418;2023-03-11T20:02:52;23.20;;;13.57;;
50429;SDS011;36359;41.556;-8.418;2023-03-11T20:06:17;27.55;;;13.13;;
50429;SDS011;36359;41.556;-8.418;2023-03-11T20:09:41;24.30;;;11.23;;
50429;SDS011;36359;41.556;-8.418;2023-03-11T20:16:35;24.48;;;11.57;;
50429;SDS011;36359;41.556;-8.418;2023-03-11T20:19:59;14.75;;;6.38;;
50429;SDS011;36359;41.556;-8.418;2023-03-11T20:23:23;20.42;;;11.20;;
50429;SDS011;36359;41.556;-8.418;2023-03-11T20:26:48;20.23;;;11.32;;
50429;SDS011;36359;41.556;-8.418;2023-03-11T20:30:12;20.23;;;11.27;;
50429;SDS011;36359;41.556;-8.418;2023-03-11T20:33:41;30.35;;;12.75;;
50429;SDS011;36359;41.556;-8.418;2023-03-11T20:37:05;29.48;;;11.82;;
50429;SDS011;36359;41.556;-8.418;2023-03-11T20:40:29;24.10;;;11.95;;
50429;SDS011;36359;41.556;-8.418;2023-03-11T20:43:58;27.67;;;13.35;;
50429;SDS011;36359;41.556;-8.418;2023-03-11T20:47:22;23.67;;;12.20;;
50429;SDS011;36359;41.556;-8.418;2023-03-11T20:50:46;29.10;;;13.15;;
50429;SDS011;36359;41.556;-8.418;2023-03-11T20:54:12;29.13;;;13.88;;
50429;SDS011;36359;41.556;-8.418;2023-03-11T20:57:37;25.92;;;13.32;;
50429;SDS011;36359;41.556;-8.418;2023-03-11T21:01:09;28.88;;;13.73;;
50429;SDS011;36359;41.556;-8.418;2023-03-11T21:04:35;22.08;;;12.80;;
50429;SDS011;36359;41.556;-8.418;2023-03-11T21:08:00;27.52;;;13.75;;
50429;SDS011;36359;41.556;-8.418;2023-03-11T21:11:27;31.42;;;15.50;;
50429;SDS011;36359;41.556;-8.418;2023-03-11T21:15:09;28.90;;;14.32;;
50429;SDS011;36359;41.556;-8.418;2023-03-11T21:18:52;31.40;;;17.45;;
50429;SDS011;36359;41.556;-8.418;2023-03-11T21:22:17;37.13;;;25.90;;
50429;SDS011;36359;41.556;-8.418;2023-03-11T21:25:41;32.67;;;17.70;;
50429;SDS011;36359;41.556;-8.418;2023-03-11T21:29:05;31.15;;;16.85;;
50429;SDS011;36359;41.556;-8.418;2023-03-11T21:32:30;33.33;;;15.25;;
50429;SDS011;36359;41.556;-8.418;2023-03-11T21:35:55;31.83;;;17.33;;
50429;SDS011;36359;41.556;-8.418;2023-03-11T21:39:19;28.33;;;15.13;;
50429;SDS011;36359;41.556;-8.418;2023-03-11T21:42:44;26.48;;;15.45;;
50429;SDS011;36359;41.556;-8.418;2023-03-11T21:46:17;26.70;;;14.88;;
50429;SDS011;36359;41.556;-8.418;2023-03-11T21:49:42;28.23;;;13.88;;
50429;SDS011;36359;41.556;-8.418;2023-03-11T21:53:06;31.23;;;15.50;;
50429;SDS011;36359;41.556;-8.418;2023-03-11T21:56:30;29.45;;;16.38;;
50429;SDS011;36359;41.556;-8.418;2023-03-11T21:59:55;31.23;;;16.65;;
50429;SDS011;36359;41.556;-8.418;2023-03-11T22:03:19;25.77;;;16.02;;
50429;SDS011;36359;41.556;-8.418;2023-03-11T22:07:02;20.52;;;12.70;;
50429;SDS011;36359;41.556;-8.418;2023-03-11T22:10:45;26.92;;;14.93;;
50429;SDS011;36359;41.556;-8.418;2023-03-11T22:14:09;31.40;;;15.07;;
50429;SDS011;36359;41.556;-8.418;2023-03-11T22:17:33;29.48;;;14.10;;
50429;SDS011;36359;41.556;-8.418;2023-03-11T22:20:58;26.50;;;14.43;;
50429;SDS011;36359;41.556;-8.418;2023-03-11T22:24:22;24.85;;;13.63;;
50429;SDS011;36359;41.556;-8.418;2023-03-11T22:27:46;23.50;;;12.73;;
50429;SDS011;36359;41.556;-8.418;2023-03-11T22:31:11;24.92;;;13.32;;
50429;SDS011;36359;41.556;-8.418;2023-03-11T22:34:36;25.17;;;12.07;;
50429;SDS011;36359;41.556;-8.418;2023-03-11T22:38:00;24.80;;;16.20;;
50429;SDS011;36359;41.556;-8.418;2023-03-11T22:41:26;30.52;;;18.77;;
50429;SDS011;36359;41.556;-8.418;2023-03-11T22:44:51;30.60;;;18.50;;
50429;SDS011;36359;41.556;-8.418;2023-03-11T22:48:34;34.03;;;18.25;;
50429;SDS011;36359;41.556;-8.418;2023-03-11T22:51:58;29.88;;;19.10;;
50429;SDS011;36359;41.556;-8.418;2023-03-11T23:03:09;29.05;;;18.95;;
50429;SDS011;36359;41.556;-8.418;2023-03-11T23:06:33;28.25;;;17.10;;
50429;SDS011;36359;41.556;-8.418;2023-03-11T23:09:57;24.10;;;16.05;;
50429;SDS011;36359;41.556;-8.418;2023-03-11T23:13:25;20.42;;;13.50;;
50429;SDS011;36359;41.556;-8.418;2023-03-11T23:16:49;23.42;;;12.98;;
50429;SDS011;36359;41.556;-8.418;2023-03-11T23:20:33;14.77;;;8.43;;
50429;SDS011;36359;41.556;-8.418;2023-03-11T23:23:59;28.52;;;14.20;;